Alyeska Resort
Max's Hourly Weather Roundup
ALYESKA_MAX 3/31/2015
Click Here for Graph

        DATE  TIME   Air  Wind  Wind  Wind  BATT   Rel
                    Temp   Spd   Dir  Gust  Volt  Hum%
                      F   MPH   AVG   MPH   AVG   AVG

   3/31/2015 15:00    32     7   128    15 13.76    84
   3/31/2015 14:00    32     4   152    10 13.69    90
   3/31/2015 13:00    32     5   108    14 13.68    86
   3/31/2015 12:00    30     5    88    12 13.73    89
   3/31/2015 11:00    28     4    68    10 13.76    93
   3/31/2015 10:00    26     3   122     7 13.51    96
   3/31/2015 09:00    27     0   177     2 12.92    96
   3/31/2015 08:00    26     0    99     2 12.81    99
   3/31/2015 07:00    26     3   161     5 12.81    97
   3/31/2015 06:00    27     3   210     6 12.82    94
   3/31/2015 05:00    28     4   164     6 12.83    86
   3/31/2015 04:00    27     4    62     8 12.85    88
   3/31/2015 03:00    27     2    57     6 12.87    88
   3/31/2015 02:00    27     2    80     5 12.89    90
   3/31/2015 01:00    27     1   186     5 12.91    88
   3/30/2015 24:00    28     2   240     4 12.94    88
   3/30/2015 23:00    28     2   246     3 12.99    88
   3/30/2015 22:00    28     2   229     4 13.08    86
   3/30/2015 21:00    28     3   296     7 13.28    94
   3/30/2015 20:00    28     4   122     8 13.90    89
   3/30/2015 19:00    29     7    61    12 13.84    86
   3/30/2015 18:00    29    11    54    16 13.79    85
   3/30/2015 17:00    29    12    49    20 13.73    86
   3/30/2015 16:00    29    11    52    21 13.74    90


Click Here for Graph